Garrett Park, Maryland
Current Conditions -  °F | °C
As of 1:15 AM on Sunday 26 Oct 2014 (Local Time) from KGAI Reporting Station
Clear Clear  
Wind Chill: 59°   Ceiling: Unl
Heat Index: 59°   Visibility: 10mi
Dew Point: 46°   Wind: 8mph
Humidity: 63%   Direction: 280°W
Pressure: 29.71"   Gusts: NA
Location:  39.04°N, 77.09°W
Report Text: KGAI 260515Z 28007KT 10SM CLR 15/08 A2971 RMK AO1
Loading
Personal Weather Stations






























Interactive Weather Map
Tropical Storm Tracking
New forecast layout! Learn more

10-Day Weather Forecast

Advertisements
Track Severe Weather on mobile